sensor_id;sensor_type;location;lat;lon;timestamp;P1;durP1;ratioP1;P2;durP2;ratioP2
7719;SDS011;3902;49.474;8.616;2022-07-29T00:00:59;2.80;;;2.60;;
7719;SDS011;3902;49.474;8.616;2022-07-29T00:03:25;4.03;;;2.37;;
7719;SDS011;3902;49.474;8.616;2022-07-29T00:05:51;3.60;;;2.50;;
7719;SDS011;3902;49.474;8.616;2022-07-29T00:08:18;2.30;;;2.10;;
7719;SDS011;3902;49.474;8.616;2022-07-29T00:10:43;3.20;;;2.60;;
7719;SDS011;3902;49.474;8.616;2022-07-29T00:13:09;3.23;;;2.20;;
7719;SDS011;3902;49.474;8.616;2022-07-29T00:15:35;2.73;;;2.20;;
7719;SDS011;3902;49.474;8.616;2022-07-29T00:18:00;3.83;;;2.50;;
7719;SDS011;3902;49.474;8.616;2022-07-29T00:20:26;4.67;;;2.53;;
7719;SDS011;3902;49.474;8.616;2022-07-29T00:22:52;2.83;;;2.30;;
7719;SDS011;3902;49.474;8.616;2022-07-29T00:25:18;2.80;;;2.37;;
7719;SDS011;3902;49.474;8.616;2022-07-29T00:27:44;2.87;;;2.40;;
7719;SDS011;3902;49.474;8.616;2022-07-29T00:30:11;2.50;;;2.30;;
7719;SDS011;3902;49.474;8.616;2022-07-29T00:32:36;2.53;;;2.33;;
7719;SDS011;3902;49.474;8.616;2022-07-29T00:35:02;3.17;;;2.27;;
7719;SDS011;3902;49.474;8.616;2022-07-29T00:37:47;2.57;;;2.37;;
7719;SDS011;3902;49.474;8.616;2022-07-29T00:40:13;2.70;;;2.50;;
7719;SDS011;3902;49.474;8.616;2022-07-29T00:42:42;3.50;;;2.93;;
7719;SDS011;3902;49.474;8.616;2022-07-29T00:45:08;3.20;;;2.53;;
7719;SDS011;3902;49.474;8.616;2022-07-29T00:47:34;2.50;;;2.30;;
7719;SDS011;3902;49.474;8.616;2022-07-29T00:50:00;6.17;;;2.30;;
7719;SDS011;3902;49.474;8.616;2022-07-29T00:52:25;4.57;;;2.70;;
7719;SDS011;3902;49.474;8.616;2022-07-29T00:54:51;3.20;;;2.73;;
7719;SDS011;3902;49.474;8.616;2022-07-29T00:57:17;3.00;;;2.50;;
7719;SDS011;3902;49.474;8.616;2022-07-29T00:59:43;3.27;;;2.60;;
7719;SDS011;3902;49.474;8.616;2022-07-29T01:02:08;2.47;;;2.27;;
7719;SDS011;3902;49.474;8.616;2022-07-29T01:04:34;2.43;;;2.23;;
7719;SDS011;3902;49.474;8.616;2022-07-29T01:07:03;2.43;;;2.17;;
7719;SDS011;3902;49.474;8.616;2022-07-29T01:09:29;3.80;;;2.80;;
7719;SDS011;3902;49.474;8.616;2022-07-29T01:11:57;2.67;;;2.47;;
7719;SDS011;3902;49.474;8.616;2022-07-29T01:14:23;3.00;;;2.80;;
7719;SDS011;3902;49.474;8.616;2022-07-29T01:16:54;4.03;;;3.00;;
7719;SDS011;3902;49.474;8.616;2022-07-29T01:19:39;3.47;;;2.57;;
7719;SDS011;3902;49.474;8.616;2022-07-29T01:30:24;2.47;;;2.27;;
7719;SDS011;3902;49.474;8.616;2022-07-29T01:32:51;2.60;;;2.40;;
7719;SDS011;3902;49.474;8.616;2022-07-29T01:35:25;2.73;;;2.53;;
7719;SDS011;3902;49.474;8.616;2022-07-29T01:38:08;2.83;;;2.63;;
7719;SDS011;3902;49.474;8.616;2022-07-29T01:43:38;3.90;;;2.97;;
7719;SDS011;3902;49.474;8.616;2022-07-29T01:46:09;3.40;;;2.33;;
7719;SDS011;3902;49.474;8.616;2022-07-29T01:48:47;3.20;;;2.53;;
7719;SDS011;3902;49.474;8.616;2022-07-29T01:51:30;2.63;;;2.40;;
7719;SDS011;3902;49.474;8.616;2022-07-29T01:56:26;2.60;;;2.40;;
7719;SDS011;3902;49.474;8.616;2022-07-29T01:58:55;2.90;;;2.70;;
7719;SDS011;3902;49.474;8.616;2022-07-29T02:01:22;2.83;;;2.57;;
7719;SDS011;3902;49.474;8.616;2022-07-29T02:03:51;2.90;;;2.60;;
7719;SDS011;3902;49.474;8.616;2022-07-29T02:06:20;2.93;;;2.70;;
7719;SDS011;3902;49.474;8.616;2022-07-29T02:08:47;3.70;;;2.70;;
7719;SDS011;3902;49.474;8.616;2022-07-29T02:11:15;2.97;;;2.60;;
7719;SDS011;3902;49.474;8.616;2022-07-29T02:13:41;3.10;;;2.80;;
7719;SDS011;3902;49.474;8.616;2022-07-29T02:16:08;4.60;;;2.47;;
7719;SDS011;3902;49.474;8.616;2022-07-29T02:18:36;3.00;;;2.67;;
7719;SDS011;3902;49.474;8.616;2022-07-29T02:21:04;2.90;;;2.47;;
7719;SDS011;3902;49.474;8.616;2022-07-29T02:23:30;3.00;;;2.77;;
7719;SDS011;3902;49.474;8.616;2022-07-29T02:25:57;2.83;;;2.63;;
7719;SDS011;3902;49.474;8.616;2022-07-29T02:28:24;4.67;;;2.40;;
7719;SDS011;3902;49.474;8.616;2022-07-29T02:30:52;2.93;;;2.73;;
7719;SDS011;3902;49.474;8.616;2022-07-29T02:33:20;2.80;;;2.57;;
7719;SDS011;3902;49.474;8.616;2022-07-29T02:35:48;2.20;;;2.00;;
7719;SDS011;3902;49.474;8.616;2022-07-29T02:38:15;2.57;;;2.37;;
7719;SDS011;3902;49.474;8.616;2022-07-29T02:41:01;3.80;;;2.90;;
7719;SDS011;3902;49.474;8.616;2022-07-29T02:43:30;2.43;;;2.23;;
7719;SDS011;3902;49.474;8.616;2022-07-29T02:45:58;3.20;;;2.20;;
7719;SDS011;3902;49.474;8.616;2022-07-29T02:48:27;2.50;;;2.30;;
7719;SDS011;3902;49.474;8.616;2022-07-29T02:51:01;2.97;;;2.27;;
7719;SDS011;3902;49.474;8.616;2022-07-29T02:53:33;2.50;;;2.30;;
7719;SDS011;3902;49.474;8.616;2022-07-29T02:56:01;2.63;;;2.30;;
7719;SDS011;3902;49.474;8.616;2022-07-29T02:59:07;2.67;;;2.40;;
7719;SDS011;3902;49.474;8.616;2022-07-29T03:01:29;1.87;;;1.77;;
7719;SDS011;3902;49.474;8.616;2022-07-29T03:03:57;5.07;;;2.37;;
7719;SDS011;3902;49.474;8.616;2022-07-29T03:06:26;3.87;;;2.77;;
7719;SDS011;3902;49.474;8.616;2022-07-29T03:08:54;2.33;;;2.13;;
7719;SDS011;3902;49.474;8.616;2022-07-29T03:11:20;6.80;;;2.40;;
7719;SDS011;3902;49.474;8.616;2022-07-29T03:13:46;2.70;;;2.50;;
7719;SDS011;3902;49.474;8.616;2022-07-29T03:16:12;2.53;;;2.23;;
7719;SDS011;3902;49.474;8.616;2022-07-29T03:18:39;2.83;;;2.60;;
7719;SDS011;3902;49.474;8.616;2022-07-29T03:21:05;3.10;;;2.30;;
7719;SDS011;3902;49.474;8.616;2022-07-29T03:23:30;3.20;;;2.20;;
7719;SDS011;3902;49.474;8.616;2022-07-29T03:25:56;3.47;;;2.40;;
7719;SDS011;3902;49.474;8.616;2022-07-29T03:28:22;3.10;;;2.10;;
7719;SDS011;3902;49.474;8.616;2022-07-29T03:30:48;2.50;;;2.30;;
7719;SDS011;3902;49.474;8.616;2022-07-29T03:33:14;3.10;;;2.10;;
7719;SDS011;3902;49.474;8.616;2022-07-29T03:35:40;2.13;;;2.03;;
7719;SDS011;3902;49.474;8.616;2022-07-29T03:38:06;3.80;;;2.10;;
7719;SDS011;3902;49.474;8.616;2022-07-29T03:40:33;4.17;;;2.80;;
7719;SDS011;3902;49.474;8.616;2022-07-29T03:43:07;2.80;;;2.60;;
7719;SDS011;3902;49.474;8.616;2022-07-29T03:45:34;3.80;;;2.83;;
7719;SDS011;3902;49.474;8.616;2022-07-29T03:48:03;3.60;;;2.30;;
7719;SDS011;3902;49.474;8.616;2022-07-29T03:50:33;2.60;;;2.40;;
7719;SDS011;3902;49.474;8.616;2022-07-29T03:52:59;2.60;;;2.40;;
7719;SDS011;3902;49.474;8.616;2022-07-29T03:55:26;3.13;;;2.30;;
7719;SDS011;3902;49.474;8.616;2022-07-29T03:57:54;2.50;;;2.30;;
7719;SDS011;3902;49.474;8.616;2022-07-29T04:00:21;2.50;;;2.30;;
7719;SDS011;3902;49.474;8.616;2022-07-29T04:02:48;2.93;;;2.50;;
7719;SDS011;3902;49.474;8.616;2022-07-29T04:05:14;2.83;;;2.63;;
7719;SDS011;3902;49.474;8.616;2022-07-29T04:07:44;3.00;;;2.33;;
7719;SDS011;3902;49.474;8.616;2022-07-29T04:10:10;4.13;;;3.27;;
7719;SDS011;3902;49.474;8.616;2022-07-29T04:12:36;3.20;;;2.30;;
7719;SDS011;3902;49.474;8.616;2022-07-29T04:15:03;2.70;;;2.20;;
7719;SDS011;3902;49.474;8.616;2022-07-29T04:17:29;4.80;;;2.70;;
7719;SDS011;3902;49.474;8.616;2022-07-29T04:19:55;4.97;;;2.33;;
7719;SDS011;3902;49.474;8.616;2022-07-29T04:22:21;3.17;;;2.43;;
7719;SDS011;3902;49.474;8.616;2022-07-29T04:24:46;2.60;;;2.40;;
7719;SDS011;3902;49.474;8.616;2022-07-29T04:27:12;2.60;;;2.40;;
7719;SDS011;3902;49.474;8.616;2022-07-29T04:29:37;2.97;;;2.50;;
7719;SDS011;3902;49.474;8.616;2022-07-29T04:32:03;3.03;;;2.10;;
7719;SDS011;3902;49.474;8.616;2022-07-29T04:34:28;2.23;;;2.03;;
7719;SDS011;3902;49.474;8.616;2022-07-29T04:36:54;3.40;;;2.70;;
7719;SDS011;3902;49.474;8.616;2022-07-29T04:39:20;2.87;;;2.43;;
7719;SDS011;3902;49.474;8.616;2022-07-29T04:41:45;2.43;;;2.23;;
7719;SDS011;3902;49.474;8.616;2022-07-29T04:44:12;2.70;;;2.50;;
7719;SDS011;3902;49.474;8.616;2022-07-29T04:46:37;2.70;;;2.50;;
7719;SDS011;3902;49.474;8.616;2022-07-29T04:49:03;2.80;;;2.60;;
7719;SDS011;3902;49.474;8.616;2022-07-29T04:51:29;2.80;;;2.50;;
7719;SDS011;3902;49.474;8.616;2022-07-29T04:53:54;2.60;;;2.40;;
7719;SDS011;3902;49.474;8.616;2022-07-29T04:56:20;2.40;;;2.20;;
7719;SDS011;3902;49.474;8.616;2022-07-29T04:58:45;3.27;;;2.70;;
7719;SDS011;3902;49.474;8.616;2022-07-29T05:01:11;4.37;;;2.83;;
7719;SDS011;3902;49.474;8.616;2022-07-29T05:03:36;4.73;;;2.87;;
7719;SDS011;3902;49.474;8.616;2022-07-29T05:06:02;2.83;;;2.63;;
7719;SDS011;3902;49.474;8.616;2022-07-29T05:08:28;3.20;;;2.90;;
7719;SDS011;3902;49.474;8.616;2022-07-29T05:10:54;3.27;;;2.80;;
7719;SDS011;3902;49.474;8.616;2022-07-29T05:13:19;2.40;;;2.07;;
7719;SDS011;3902;49.474;8.616;2022-07-29T05:15:45;3.33;;;2.80;;
7719;SDS011;3902;49.474;8.616;2022-07-29T05:18:10;3.50;;;2.63;;
7719;SDS011;3902;49.474;8.616;2022-07-29T05:20:36;2.80;;;2.60;;
7719;SDS011;3902;49.474;8.616;2022-07-29T05:23:02;3.23;;;2.50;;
7719;SDS011;3902;49.474;8.616;2022-07-29T05:25:28;2.90;;;2.67;;
7719;SDS011;3902;49.474;8.616;2022-07-29T05:27:54;3.40;;;3.03;;
7719;SDS011;3902;49.474;8.616;2022-07-29T05:30:20;5.73;;;2.33;;
7719;SDS011;3902;49.474;8.616;2022-07-29T05:32:46;2.60;;;2.40;;
7719;SDS011;3902;49.474;8.616;2022-07-29T05:35:12;2.60;;;2.40;;
7719;SDS011;3902;49.474;8.616;2022-07-29T05:37:38;3.57;;;2.43;;
7719;SDS011;3902;49.474;8.616;2022-07-29T05:40:04;3.07;;;2.80;;
7719;SDS011;3902;49.474;8.616;2022-07-29T05:42:31;2.93;;;2.73;;
7719;SDS011;3902;49.474;8.616;2022-07-29T05:44:56;4.07;;;2.90;;
7719;SDS011;3902;49.474;8.616;2022-07-29T05:47:22;2.77;;;2.47;;
7719;SDS011;3902;49.474;8.616;2022-07-29T05:49:48;2.73;;;2.50;;
7719;SDS011;3902;49.474;8.616;2022-07-29T05:52:14;2.83;;;2.60;;
7719;SDS011;3902;49.474;8.616;2022-07-29T05:54:40;2.70;;;2.50;;
7719;SDS011;3902;49.474;8.616;2022-07-29T05:57:05;3.40;;;2.50;;
7719;SDS011;3902;49.474;8.616;2022-07-29T05:59:35;2.80;;;2.60;;
7719;SDS011;3902;49.474;8.616;2022-07-29T06:02:01;3.17;;;2.73;;
7719;SDS011;3902;49.474;8.616;2022-07-29T06:04:26;4.07;;;3.00;;
7719;SDS011;3902;49.474;8.616;2022-07-29T06:06:52;4.20;;;3.40;;
7719;SDS011;3902;49.474;8.616;2022-07-29T06:09:18;3.43;;;3.13;;
7719;SDS011;3902;49.474;8.616;2022-07-29T06:11:43;4.07;;;3.27;;
7719;SDS011;3902;49.474;8.616;2022-07-29T06:14:09;5.30;;;3.40;;
7719;SDS011;3902;49.474;8.616;2022-07-29T06:16:34;5.00;;;3.37;;
7719;SDS011;3902;49.474;8.616;2022-07-29T06:19:00;4.10;;;3.17;;
7719;SDS011;3902;49.474;8.616;2022-07-29T06:21:26;4.97;;;3.40;;
7719;SDS011;3902;49.474;8.616;2022-07-29T06:23:51;6.83;;;3.53;;
7719;SDS011;3902;49.474;8.616;2022-07-29T06:26:17;5.53;;;3.03;;
7719;SDS011;3902;49.474;8.616;2022-07-29T06:28:42;5.93;;;3.47;;
7719;SDS011;3902;49.474;8.616;2022-07-29T06:31:08;3.70;;;3.40;;
7719;SDS011;3902;49.474;8.616;2022-07-29T06:33:33;3.27;;;2.97;;
7719;SDS011;3902;49.474;8.616;2022-07-29T06:35:59;4.20;;;3.17;;
7719;SDS011;3902;49.474;8.616;2022-07-29T06:38:25;6.37;;;3.90;;
7719;SDS011;3902;49.474;8.616;2022-07-29T06:40:50;3.40;;;2.53;;
7719;SDS011;3902;49.474;8.616;2022-07-29T06:43:25;3.60;;;3.30;;
7719;SDS011;3902;49.474;8.616;2022-07-29T06:45:52;3.73;;;3.43;;
7719;SDS011;3902;49.474;8.616;2022-07-29T06:48:18;7.03;;;3.80;;
7719;SDS011;3902;49.474;8.616;2022-07-29T06:50:43;4.93;;;3.20;;
7719;SDS011;3902;49.474;8.616;2022-07-29T06:53:09;3.97;;;3.33;;
7719;SDS011;3902;49.474;8.616;2022-07-29T06:55:34;5.37;;;3.43;;
7719;SDS011;3902;49.474;8.616;2022-07-29T06:58:01;3.53;;;3.23;;
7719;SDS011;3902;49.474;8.616;2022-07-29T07:00:27;3.60;;;3.30;;
7719;SDS011;3902;49.474;8.616;2022-07-29T07:02:52;3.50;;;3.17;;
7719;SDS011;3902;49.474;8.616;2022-07-29T07:05:18;4.10;;;2.90;;
7719;SDS011;3902;49.474;8.616;2022-07-29T07:07:44;3.63;;;3.20;;
7719;SDS011;3902;49.474;8.616;2022-07-29T07:10:09;3.67;;;3.37;;
7719;SDS011;3902;49.474;8.616;2022-07-29T07:12:35;4.20;;;3.80;;
7719;SDS011;3902;49.474;8.616;2022-07-29T07:15:00;6.30;;;4.00;;
7719;SDS011;3902;49.474;8.616;2022-07-29T07:17:26;3.50;;;3.17;;
7719;SDS011;3902;49.474;8.616;2022-07-29T07:19:51;3.50;;;3.10;;
7719;SDS011;3902;49.474;8.616;2022-07-29T07:22:17;2.43;;;2.23;;
7719;SDS011;3902;49.474;8.616;2022-07-29T07:24:42;4.07;;;3.67;;
7719;SDS011;3902;49.474;8.616;2022-07-29T07:27:08;3.70;;;3.10;;
7719;SDS011;3902;49.474;8.616;2022-07-29T07:29:33;3.57;;;3.27;;
7719;SDS011;3902;49.474;8.616;2022-07-29T07:31:59;3.17;;;2.83;;
7719;SDS011;3902;49.474;8.616;2022-07-29T07:34:24;4.30;;;3.27;;
7719;SDS011;3902;49.474;8.616;2022-07-29T07:36:50;2.90;;;2.70;;
7719;SDS011;3902;49.474;8.616;2022-07-29T07:39:15;3.40;;;3.10;;
7719;SDS011;3902;49.474;8.616;2022-07-29T07:41:41;3.13;;;2.87;;
7719;SDS011;3902;49.474;8.616;2022-07-29T07:44:06;4.50;;;3.10;;
7719;SDS011;3902;49.474;8.616;2022-07-29T07:46:32;3.20;;;3.00;;
7719;SDS011;3902;49.474;8.616;2022-07-29T07:48:57;2.90;;;2.70;;
7719;SDS011;3902;49.474;8.616;2022-07-29T07:51:23;6.93;;;3.20;;
7719;SDS011;3902;49.474;8.616;2022-07-29T07:53:48;8.43;;;3.60;;
7719;SDS011;3902;49.474;8.616;2022-07-29T07:56:15;4.23;;;3.40;;
7719;SDS011;3902;49.474;8.616;2022-07-29T07:58:41;3.43;;;3.13;;
7719;SDS011;3902;49.474;8.616;2022-07-29T08:01:07;3.60;;;3.30;;
7719;SDS011;3902;49.474;8.616;2022-07-29T08:03:34;3.60;;;3.30;;
7719;SDS011;3902;49.474;8.616;2022-07-29T08:05:59;3.73;;;3.20;;
7719;SDS011;3902;49.474;8.616;2022-07-29T08:08:25;8.00;;;3.80;;
7719;SDS011;3902;49.474;8.616;2022-07-29T08:10:51;4.53;;;3.63;;
7719;SDS011;3902;49.474;8.616;2022-07-29T08:13:17;3.47;;;3.17;;
7719;SDS011;3902;49.474;8.616;2022-07-29T08:15:44;3.70;;;3.40;;
7719;SDS011;3902;49.474;8.616;2022-07-29T08:18:10;3.83;;;3.53;;
7719;SDS011;3902;49.474;8.616;2022-07-29T08:20:37;5.83;;;3.80;;
7719;SDS011;3902;49.474;8.616;2022-07-29T08:23:04;3.27;;;3.00;;
7719;SDS011;3902;49.474;8.616;2022-07-29T08:25:33;4.80;;;3.53;;
7719;SDS011;3902;49.474;8.616;2022-07-29T08:28:00;4.97;;;3.70;;
7719;SDS011;3902;49.474;8.616;2022-07-29T08:30:26;3.73;;;3.27;;
7719;SDS011;3902;49.474;8.616;2022-07-29T08:32:52;7.93;;;4.40;;
7719;SDS011;3902;49.474;8.616;2022-07-29T08:35:18;4.20;;;3.90;;
7719;SDS011;3902;49.474;8.616;2022-07-29T08:37:45;4.90;;;3.87;;
7719;SDS011;3902;49.474;8.616;2022-07-29T08:40:11;3.93;;;3.63;;
7719;SDS011;3902;49.474;8.616;2022-07-29T08:42:36;5.00;;;3.57;;
7719;SDS011;3902;49.474;8.616;2022-07-29T08:45:03;4.77;;;4.20;;
7719;SDS011;3902;49.474;8.616;2022-07-29T08:47:29;4.57;;;4.13;;
7719;SDS011;3902;49.474;8.616;2022-07-29T08:49:55;4.57;;;4.17;;
7719;SDS011;3902;49.474;8.616;2022-07-29T08:52:20;9.43;;;4.93;;
7719;SDS011;3902;49.474;8.616;2022-07-29T08:54:48;4.27;;;3.90;;
7719;SDS011;3902;49.474;8.616;2022-07-29T08:57:15;6.10;;;4.03;;
7719;SDS011;3902;49.474;8.616;2022-07-29T08:59:42;3.93;;;3.63;;
7719;SDS011;3902;49.474;8.616;2022-07-29T09:02:12;4.13;;;3.50;;
7719;SDS011;3902;49.474;8.616;2022-07-29T09:04:44;3.90;;;3.60;;
7719;SDS011;3902;49.474;8.616;2022-07-29T09:07:10;5.40;;;4.17;;
7719;SDS011;3902;49.474;8.616;2022-07-29T09:09:42;4.40;;;3.30;;
7719;SDS011;3902;49.474;8.616;2022-07-29T09:12:09;6.73;;;3.90;;
7719;SDS011;3902;49.474;8.616;2022-07-29T09:14:36;3.90;;;3.50;;
7719;SDS011;3902;49.474;8.616;2022-07-29T09:17:06;3.20;;;2.90;;
7719;SDS011;3902;49.474;8.616;2022-07-29T09:19:33;3.97;;;3.57;;
7719;SDS011;3902;49.474;8.616;2022-07-29T09:22:00;4.67;;;4.10;;
7719;SDS011;3902;49.474;8.616;2022-07-29T09:26:59;4.63;;;3.77;;
7719;SDS011;3902;49.474;8.616;2022-07-29T09:29:25;3.70;;;3.40;;
7719;SDS011;3902;49.474;8.616;2022-07-29T09:31:52;4.57;;;4.17;;
7719;SDS011;3902;49.474;8.616;2022-07-29T09:34:23;7.90;;;3.90;;
7719;SDS011;3902;49.474;8.616;2022-07-29T09:36:50;6.70;;;3.67;;
7719;SDS011;3902;49.474;8.616;2022-07-29T09:39:26;4.83;;;3.80;;
7719;SDS011;3902;49.474;8.616;2022-07-29T09:42:00;3.43;;;3.13;;
7719;SDS011;3902;49.474;8.616;2022-07-29T09:44:40;4.67;;;3.90;;
7719;SDS011;3902;49.474;8.616;2022-07-29T09:47:13;4.67;;;3.47;;
7719;SDS011;3902;49.474;8.616;2022-07-29T09:49:55;4.47;;;3.40;;
7719;SDS011;3902;49.474;8.616;2022-07-29T09:52:24;4.47;;;3.50;;
7719;SDS011;3902;49.474;8.616;2022-07-29T09:54:51;3.93;;;3.17;;
7719;SDS011;3902;49.474;8.616;2022-07-29T09:57:28;6.67;;;4.20;;
7719;SDS011;3902;49.474;8.616;2022-07-29T10:02:22;6.17;;;4.30;;
7719;SDS011;3902;49.474;8.616;2022-07-29T10:04:52;5.20;;;4.10;;
7719;SDS011;3902;49.474;8.616;2022-07-29T10:07:17;6.37;;;3.93;;
7719;SDS011;3902;49.474;8.616;2022-07-29T10:09:53;5.40;;;4.33;;
7719;SDS011;3902;49.474;8.616;2022-07-29T10:12:20;4.63;;;4.17;;
7719;SDS011;3902;49.474;8.616;2022-07-29T10:14:46;6.00;;;4.73;;
7719;SDS011;3902;49.474;8.616;2022-07-29T10:17:13;5.77;;;4.50;;
7719;SDS011;3902;49.474;8.616;2022-07-29T10:19:39;6.00;;;4.00;;
7719;SDS011;3902;49.474;8.616;2022-07-29T10:22:08;3.70;;;3.40;;
7719;SDS011;3902;49.474;8.616;2022-07-29T10:24:34;4.43;;;3.73;;
7719;SDS011;3902;49.474;8.616;2022-07-29T10:27:02;6.00;;;4.50;;
7719;SDS011;3902;49.474;8.616;2022-07-29T10:29:29;4.77;;;4.30;;
7719;SDS011;3902;49.474;8.616;2022-07-29T10:37:42;10.40;;;4.40;;
7719;SDS011;3902;49.474;8.616;2022-07-29T10:43:17;4.77;;;4.00;;
7719;SDS011;3902;49.474;8.616;2022-07-29T10:45:49;5.83;;;4.37;;
7719;SDS011;3902;49.474;8.616;2022-07-29T10:48:21;5.27;;;3.77;;
7719;SDS011;3902;49.474;8.616;2022-07-29T10:51:00;3.90;;;3.60;;
7719;SDS011;3902;49.474;8.616;2022-07-29T10:56:26;3.80;;;3.50;;
7719;SDS011;3902;49.474;8.616;2022-07-29T11:01:49;5.17;;;3.50;;
7719;SDS011;3902;49.474;8.616;2022-07-29T11:07:07;4.43;;;3.70;;
7719;SDS011;3902;49.474;8.616;2022-07-29T11:09:33;4.57;;;4.07;;
7719;SDS011;3902;49.474;8.616;2022-07-29T11:11:59;5.40;;;4.00;;
7719;SDS011;3902;49.474;8.616;2022-07-29T11:17:18;6.70;;;3.60;;
7719;SDS011;3902;49.474;8.616;2022-07-29T11:19:44;7.47;;;3.80;;
7719;SDS011;3902;49.474;8.616;2022-07-29T11:22:10;12.63;;;4.00;;
7719;SDS011;3902;49.474;8.616;2022-07-29T11:24:36;5.83;;;4.33;;
7719;SDS011;3902;49.474;8.616;2022-07-29T11:29:31;7.03;;;4.03;;
7719;SDS011;3902;49.474;8.616;2022-07-29T11:32:08;4.93;;;3.63;;
7719;SDS011;3902;49.474;8.616;2022-07-29T11:34:36;5.10;;;4.10;;
7719;SDS011;3902;49.474;8.616;2022-07-29T11:39:40;5.93;;;3.63;;
7719;SDS011;3902;49.474;8.616;2022-07-29T11:44:55;7.63;;;4.07;;
7719;SDS011;3902;49.474;8.616;2022-07-29T11:47:42;4.03;;;3.63;;
7719;SDS011;3902;49.474;8.616;2022-07-29T11:50:12;4.37;;;3.97;;
7719;SDS011;3902;49.474;8.616;2022-07-29T11:52:39;8.97;;;4.00;;
7719;SDS011;3902;49.474;8.616;2022-07-29T11:55:14;5.17;;;4.30;;
7719;SDS011;3902;49.474;8.616;2022-07-29T11:57:57;4.57;;;3.60;;
7719;SDS011;3902;49.474;8.616;2022-07-29T12:00:26;5.83;;;4.03;;
7719;SDS011;3902;49.474;8.616;2022-07-29T12:03:00;4.70;;;3.67;;
7719;SDS011;3902;49.474;8.616;2022-07-29T12:05:45;5.20;;;3.47;;
7719;SDS011;3902;49.474;8.616;2022-07-29T12:08:15;3.97;;;3.57;;
7719;SDS011;3902;49.474;8.616;2022-07-29T12:10:44;4.73;;;4.33;;
7719;SDS011;3902;49.474;8.616;2022-07-29T12:13:12;5.20;;;4.43;;
7719;SDS011;3902;49.474;8.616;2022-07-29T12:15:39;4.80;;;4.30;;
7719;SDS011;3902;49.474;8.616;2022-07-29T12:18:09;4.30;;;3.90;;
7719;SDS011;3902;49.474;8.616;2022-07-29T12:20:42;9.70;;;4.40;;
7719;SDS011;3902;49.474;8.616;2022-07-29T12:23:09;5.60;;;4.50;;
7719;SDS011;3902;49.474;8.616;2022-07-29T12:25:37;4.20;;;3.80;;
7719;SDS011;3902;49.474;8.616;2022-07-29T12:28:04;4.77;;;4.07;;
7719;SDS011;3902;49.474;8.616;2022-07-29T12:30:34;4.00;;;3.57;;
7719;SDS011;3902;49.474;8.616;2022-07-29T12:33:00;7.43;;;3.57;;
7719;SDS011;3902;49.474;8.616;2022-07-29T12:35:26;4.47;;;3.70;;
7719;SDS011;3902;49.474;8.616;2022-07-29T12:37:51;4.13;;;3.63;;
7719;SDS011;3902;49.474;8.616;2022-07-29T12:40:17;4.37;;;3.70;;
7719;SDS011;3902;49.474;8.616;2022-07-29T12:45:48;5.60;;;3.97;;
7719;SDS011;3902;49.474;8.616;2022-07-29T12:48:15;4.63;;;3.70;;
7719;SDS011;3902;49.474;8.616;2022-07-29T12:50:54;4.20;;;3.80;;
7719;SDS011;3902;49.474;8.616;2022-07-29T12:53:22;5.30;;;3.40;;
7719;SDS011;3902;49.474;8.616;2022-07-29T12:55:48;4.63;;;4.07;;
7719;SDS011;3902;49.474;8.616;2022-07-29T13:09:06;4.60;;;3.20;;
7719;SDS011;3902;49.474;8.616;2022-07-29T13:11:39;4.70;;;3.45;;
7719;SDS011;3902;49.474;8.616;2022-07-29T13:14:10;4.75;;;3.63;;
7719;SDS011;3902;49.474;8.616;2022-07-29T13:19:34;10.50;;;3.33;;
7719;SDS011;3902;49.474;8.616;2022-07-29T13:22:02;81.28;;;12.07;;
7719;SDS011;3902;49.474;8.616;2022-07-29T13:24:28;26.50;;;6.95;;
7719;SDS011;3902;49.474;8.616;2022-07-29T13:26:53;10.15;;;4.40;;
7719;SDS011;3902;49.474;8.616;2022-07-29T13:29:19;12.20;;;4.47;;
7719;SDS011;3902;49.474;8.616;2022-07-29T13:31:44;6.47;;;3.90;;
7719;SDS011;3902;49.474;8.616;2022-07-29T13:34:10;7.03;;;3.35;;
7719;SDS011;3902;49.474;8.616;2022-07-29T13:36:36;4.60;;;3.55;;
7719;SDS011;3902;49.474;8.616;2022-07-29T13:39:02;5.15;;;3.60;;
7719;SDS011;3902;49.474;8.616;2022-07-29T13:41:28;5.37;;;3.50;;
7719;SDS011;3902;49.474;8.616;2022-07-29T13:43:54;4.07;;;3.70;;
7719;SDS011;3902;49.474;8.616;2022-07-29T13:46:20;5.40;;;3.30;;
7719;SDS011;3902;49.474;8.616;2022-07-29T13:48:45;3.43;;;3.13;;
7719;SDS011;3902;49.474;8.616;2022-07-29T13:51:11;3.27;;;2.97;;
7719;SDS011;3902;49.474;8.616;2022-07-29T13:53:37;3.63;;;3.33;;
7719;SDS011;3902;49.474;8.616;2022-07-29T13:56:03;15.50;;;3.93;;
7719;SDS011;3902;49.474;8.616;2022-07-29T13:58:30;4.53;;;3.70;;
7719;SDS011;3902;49.474;8.616;2022-07-29T14:00:57;3.67;;;3.30;;
7719;SDS011;3902;49.474;8.616;2022-07-29T14:03:23;4.07;;;3.10;;
7719;SDS011;3902;49.474;8.616;2022-07-29T14:05:49;4.80;;;3.90;;
7719;SDS011;3902;49.474;8.616;2022-07-29T14:08:15;3.87;;;3.50;;
7719;SDS011;3902;49.474;8.616;2022-07-29T14:10:41;4.80;;;3.90;;
7719;SDS011;3902;49.474;8.616;2022-07-29T14:13:06;5.63;;;3.93;;
7719;SDS011;3902;49.474;8.616;2022-07-29T14:15:32;6.53;;;3.60;;
7719;SDS011;3902;49.474;8.616;2022-07-29T14:17:57;4.03;;;2.97;;
7719;SDS011;3902;49.474;8.616;2022-07-29T14:20:23;3.63;;;3.23;;
7719;SDS011;3902;49.474;8.616;2022-07-29T14:22:48;3.50;;;3.20;;
7719;SDS011;3902;49.474;8.616;2022-07-29T14:25:14;4.67;;;3.43;;
7719;SDS011;3902;49.474;8.616;2022-07-29T14:27:39;5.70;;;4.00;;
7719;SDS011;3902;49.474;8.616;2022-07-29T14:30:05;3.90;;;3.20;;
7719;SDS011;3902;49.474;8.616;2022-07-29T14:32:31;3.73;;;3.43;;
7719;SDS011;3902;49.474;8.616;2022-07-29T14:34:57;5.70;;;3.10;;
7719;SDS011;3902;49.474;8.616;2022-07-29T14:37:22;4.77;;;3.77;;
7719;SDS011;3902;49.474;8.616;2022-07-29T14:39:48;6.93;;;2.90;;
7719;SDS011;3902;49.474;8.616;2022-07-29T14:42:13;4.00;;;3.27;;
7719;SDS011;3902;49.474;8.616;2022-07-29T14:44:39;10.17;;;3.40;;
7719;SDS011;3902;49.474;8.616;2022-07-29T14:47:06;4.73;;;3.70;;
7719;SDS011;3902;49.474;8.616;2022-07-29T14:49:31;3.30;;;3.00;;
7719;SDS011;3902;49.474;8.616;2022-07-29T14:51:57;5.37;;;3.13;;
7719;SDS011;3902;49.474;8.616;2022-07-29T14:54:22;4.10;;;3.70;;
7719;SDS011;3902;49.474;8.616;2022-07-29T14:56:48;4.40;;;3.20;;
7719;SDS011;3902;49.474;8.616;2022-07-29T14:59:15;7.17;;;3.30;;
7719;SDS011;3902;49.474;8.616;2022-07-29T15:01:41;3.53;;;3.13;;
7719;SDS011;3902;49.474;8.616;2022-07-29T15:04:07;3.43;;;3.13;;
7719;SDS011;3902;49.474;8.616;2022-07-29T15:06:32;4.93;;;3.40;;
7719;SDS011;3902;49.474;8.616;2022-07-29T15:08:58;5.37;;;3.37;;
7719;SDS011;3902;49.474;8.616;2022-07-29T15:11:24;4.43;;;3.27;;
7719;SDS011;3902;49.474;8.616;2022-07-29T15:13:50;3.87;;;3.13;;
7719;SDS011;3902;49.474;8.616;2022-07-29T15:16:15;3.63;;;3.07;;
7719;SDS011;3902;49.474;8.616;2022-07-29T15:18:41;4.10;;;3.27;;
7719;SDS011;3902;49.474;8.616;2022-07-29T15:21:07;6.67;;;3.77;;
7719;SDS011;3902;49.474;8.616;2022-07-29T15:23:32;5.40;;;3.37;;
7719;SDS011;3902;49.474;8.616;2022-07-29T15:26:00;3.30;;;3.03;;
7719;SDS011;3902;49.474;8.616;2022-07-29T15:28:27;3.70;;;2.50;;
7719;SDS011;3902;49.474;8.616;2022-07-29T15:30:52;3.87;;;3.57;;
7719;SDS011;3902;49.474;8.616;2022-07-29T15:33:19;4.37;;;2.90;;
7719;SDS011;3902;49.474;8.616;2022-07-29T15:35:44;4.90;;;3.40;;
7719;SDS011;3902;49.474;8.616;2022-07-29T15:38:10;6.80;;;2.80;;
7719;SDS011;3902;49.474;8.616;2022-07-29T15:40:36;3.67;;;3.37;;
7719;SDS011;3902;49.474;8.616;2022-07-29T15:43:04;4.60;;;2.67;;
7719;SDS011;3902;49.474;8.616;2022-07-29T15:45:34;4.00;;;3.20;;
7719;SDS011;3902;49.474;8.616;2022-07-29T15:48:01;2.97;;;2.70;;
7719;SDS011;3902;49.474;8.616;2022-07-29T15:50:27;4.03;;;2.70;;
7719;SDS011;3902;49.474;8.616;2022-07-29T15:52:52;11.83;;;2.90;;
7719;SDS011;3902;49.474;8.616;2022-07-29T15:55:18;3.63;;;2.67;;
7719;SDS011;3902;49.474;8.616;2022-07-29T15:57:43;4.70;;;2.40;;
7719;SDS011;3902;49.474;8.616;2022-07-29T16:00:09;4.10;;;3.20;;
7719;SDS011;3902;49.474;8.616;2022-07-29T16:02:35;2.43;;;2.23;;
7719;SDS011;3902;49.474;8.616;2022-07-29T16:05:02;3.60;;;2.77;;
7719;SDS011;3902;49.474;8.616;2022-07-29T16:07:27;5.50;;;3.00;;
7719;SDS011;3902;49.474;8.616;2022-07-29T16:09:53;3.43;;;2.37;;
7719;SDS011;3902;49.474;8.616;2022-07-29T16:12:18;6.83;;;2.73;;
7719;SDS011;3902;49.474;8.616;2022-07-29T16:14:44;3.43;;;2.53;;
7719;SDS011;3902;49.474;8.616;2022-07-29T16:17:10;6.77;;;2.60;;
7719;SDS011;3902;49.474;8.616;2022-07-29T16:19:36;3.33;;;2.87;;